createdAt,value
2022-11-08T00:00:58.146Z,13.10
2022-11-08T00:03:02.377Z,13.04
2022-11-08T00:04:02.345Z,13.17
2022-11-08T00:06:06.407Z,13.10
2022-11-08T00:07:06.421Z,13.07
2022-11-08T00:08:06.452Z,13.04
2022-11-08T00:09:06.483Z,13.12
2022-11-08T00:10:06.518Z,13.06
2022-11-08T00:11:06.550Z,13.04
2022-11-08T00:12:06.582Z,13.06
2022-11-08T00:13:06.647Z,13.07
2022-11-08T00:14:06.648Z,12.98
2022-11-08T00:15:06.679Z,13.12
2022-11-08T00:16:06.716Z,13.04
2022-11-08T00:17:06.744Z,12.98
2022-11-08T00:18:06.784Z,13.12
2022-11-08T00:19:06.812Z,13.07
2022-11-08T00:20:06.846Z,13.06
2022-11-08T00:21:06.876Z,13.01
2022-11-08T00:22:06.909Z,12.98
2022-11-08T00:23:06.945Z,13.09
2022-11-08T00:24:06.975Z,13.03
2022-11-08T00:25:07.008Z,12.98
2022-11-08T00:26:07.040Z,12.91
2022-11-08T00:27:07.073Z,12.94
2022-11-08T00:28:07.108Z,12.92
2022-11-08T00:29:07.137Z,12.94
2022-11-08T00:30:07.171Z,12.88
2022-11-08T00:31:07.203Z,12.84
2022-11-08T00:32:07.237Z,12.92
2022-11-08T00:33:07.269Z,12.98
2022-11-08T00:34:07.304Z,12.96
2022-11-08T00:35:07.337Z,12.91
2022-11-08T00:36:07.369Z,12.96
2022-11-08T00:37:07.398Z,12.94
2022-11-08T00:38:07.432Z,12.94
2022-11-08T00:39:07.464Z,12.95
2022-11-08T00:40:07.500Z,12.92
2022-11-08T00:41:07.527Z,12.96
2022-11-08T00:42:07.563Z,12.95
2022-11-08T00:43:07.635Z,12.98
2022-11-08T00:44:07.678Z,12.96
2022-11-08T00:45:07.659Z,12.92
2022-11-08T00:46:07.695Z,12.91
2022-11-08T00:47:07.725Z,12.88
2022-11-08T00:48:07.758Z,12.96
2022-11-08T00:49:07.791Z,12.89
2022-11-08T00:50:07.824Z,12.95
2022-11-08T00:51:07.855Z,12.88
2022-11-08T00:52:07.890Z,12.88
2022-11-08T00:53:07.921Z,12.89
2022-11-08T00:54:07.955Z,12.80
2022-11-08T00:55:07.987Z,12.89
2022-11-08T00:56:08.022Z,12.85
2022-11-08T00:57:08.056Z,12.84
2022-11-08T00:58:08.086Z,12.84
2022-11-08T00:59:08.117Z,12.73
2022-11-08T01:00:08.152Z,12.74
2022-11-08T01:01:08.281Z,12.85
2022-11-08T01:02:08.297Z,12.79
2022-11-08T01:03:08.248Z,12.85
2022-11-08T01:04:08.281Z,12.85
2022-11-08T01:05:08.314Z,12.87
2022-11-08T01:06:08.347Z,12.91
2022-11-08T01:07:08.381Z,12.74
2022-11-08T01:08:08.420Z,12.73
2022-11-08T01:09:08.444Z,12.79
2022-11-08T01:10:08.476Z,12.70
2022-11-08T01:11:08.508Z,12.73
2022-11-08T01:12:08.543Z,12.80
2022-11-08T01:13:08.574Z,12.80
2022-11-08T01:14:08.609Z,12.62
2022-11-08T01:15:08.697Z,12.74
2022-11-08T01:16:08.673Z,12.70
2022-11-08T01:17:08.703Z,12.67
2022-11-08T01:18:08.736Z,12.71
2022-11-08T01:19:08.768Z,12.73
2022-11-08T01:20:08.803Z,12.79
2022-11-08T01:21:08.833Z,12.74
2022-11-08T01:22:08.869Z,12.77
2022-11-08T01:23:08.899Z,12.74
2022-11-08T01:24:08.931Z,12.71
2022-11-08T01:25:08.963Z,12.69
2022-11-08T01:26:08.998Z,12.70
2022-11-08T01:27:09.027Z,12.74
2022-11-08T01:28:09.063Z,12.61
2022-11-08T01:29:09.095Z,12.70
2022-11-08T01:30:09.133Z,12.71
2022-11-08T01:31:09.158Z,12.69
2022-11-08T01:32:09.197Z,12.73
2022-11-08T01:33:09.222Z,12.70
2022-11-08T01:34:09.262Z,12.67
2022-11-08T01:35:09.292Z,12.74
2022-11-08T01:36:09.321Z,12.80
2022-11-08T01:37:09.351Z,12.70
2022-11-08T01:38:09.396Z,12.74
2022-11-08T01:39:09.421Z,12.71
2022-11-08T01:40:09.452Z,12.71
2022-11-08T01:41:09.483Z,12.71
2022-11-08T01:42:09.516Z,12.66
2022-11-08T01:43:09.547Z,12.74
2022-11-08T01:44:09.581Z,12.66
2022-11-08T01:45:09.612Z,12.67
2022-11-08T01:46:09.647Z,12.66
2022-11-08T01:47:09.682Z,12.67
2022-11-08T01:48:09.710Z,12.69
2022-11-08T01:49:09.743Z,12.67
2022-11-08T01:50:09.778Z,12.71
2022-11-08T01:51:09.807Z,12.70
2022-11-08T01:52:09.840Z,12.67
2022-11-08T01:53:09.870Z,12.74
2022-11-08T01:54:09.909Z,12.77
2022-11-08T01:55:09.946Z,12.70
2022-11-08T01:56:09.970Z,12.71
2022-11-08T01:57:10.002Z,12.69
2022-11-08T01:58:10.033Z,12.76
2022-11-08T01:59:10.066Z,12.73
2022-11-08T02:00:10.101Z,12.80
2022-11-08T02:01:10.225Z,12.73
2022-11-08T02:02:10.383Z,12.74
2022-11-08T02:03:10.199Z,12.76
2022-11-08T02:04:10.230Z,12.74
2022-11-08T02:05:10.261Z,12.63
2022-11-08T02:06:10.296Z,12.73
2022-11-08T02:07:10.325Z,12.74
2022-11-08T02:08:10.359Z,12.73
2022-11-08T02:09:10.390Z,12.66
2022-11-08T02:10:10.424Z,12.59
2022-11-08T02:11:10.458Z,12.67
2022-11-08T02:12:10.496Z,12.70
2022-11-08T02:13:14.446Z,12.67
2022-11-08T02:14:10.554Z,12.70
2022-11-08T02:15:10.606Z,12.71
2022-11-08T02:16:10.623Z,12.71
2022-11-08T02:17:10.649Z,12.67
2022-11-08T02:18:10.744Z,12.71
2022-11-08T02:19:10.717Z,12.74
2022-11-08T02:20:10.752Z,12.71
2022-11-08T02:21:10.779Z,12.71
2022-11-08T02:22:10.816Z,12.76
2022-11-08T02:23:10.847Z,12.76
2022-11-08T02:24:10.878Z,12.73
2022-11-08T02:25:10.908Z,12.71
2022-11-08T02:26:10.945Z,12.77
2022-11-08T02:27:10.973Z,12.71
2022-11-08T02:28:11.006Z,12.76
2022-11-08T02:29:11.037Z,12.74
2022-11-08T02:30:11.076Z,12.79
2022-11-08T02:31:11.106Z,12.74
2022-11-08T02:32:11.157Z,12.74
2022-11-08T02:33:11.169Z,12.76
2022-11-08T02:34:11.204Z,12.73
2022-11-08T02:35:11.234Z,12.73
2022-11-08T02:36:11.270Z,12.70
2022-11-08T02:37:11.300Z,12.71
2022-11-08T02:38:11.333Z,12.77
2022-11-08T02:39:11.355Z,12.70
2022-11-08T02:40:11.387Z,12.80
2022-11-08T02:41:11.419Z,12.74
2022-11-08T02:42:11.453Z,12.71
2022-11-08T02:43:11.486Z,12.70
2022-11-08T02:44:11.518Z,12.61
2022-11-08T02:45:11.551Z,12.71
2022-11-08T02:46:11.580Z,12.71
2022-11-08T02:47:11.616Z,12.74
2022-11-08T02:48:11.646Z,12.67
2022-11-08T02:49:11.681Z,12.59
2022-11-08T02:50:11.714Z,12.71
2022-11-08T02:51:11.748Z,12.69
2022-11-08T02:52:11.778Z,12.76
2022-11-08T02:53:11.811Z,12.73
2022-11-08T02:54:11.843Z,12.70
2022-11-08T02:55:11.874Z,12.77
2022-11-08T02:56:11.915Z,12.73
2022-11-08T02:57:11.938Z,12.67
2022-11-08T02:58:11.972Z,12.73
2022-11-08T02:59:12.004Z,12.67
2022-11-08T03:00:12.043Z,12.76
2022-11-08T03:01:12.082Z,12.69
2022-11-08T03:02:12.311Z,12.71
2022-11-08T03:03:12.135Z,12.66
2022-11-08T03:04:12.170Z,12.73
2022-11-08T03:05:12.196Z,12.63
2022-11-08T03:06:12.233Z,12.73
2022-11-08T03:07:12.263Z,12.71
2022-11-08T03:08:12.296Z,12.69
2022-11-08T03:09:12.326Z,12.71
2022-11-08T03:10:12.361Z,12.63
2022-11-08T03:11:12.393Z,12.55
2022-11-08T03:12:12.426Z,12.70
2022-11-08T03:13:12.457Z,12.59
2022-11-08T03:14:12.491Z,12.54
2022-11-08T03:15:12.536Z,12.52
2022-11-08T03:16:12.555Z,12.51
2022-11-08T03:17:12.587Z,12.52
2022-11-08T03:18:12.623Z,12.59
2022-11-08T03:19:12.651Z,12.66
2022-11-08T03:20:12.692Z,12.52
2022-11-08T03:21:12.720Z,12.51
2022-11-08T03:22:12.749Z,12.55
2022-11-08T03:23:12.784Z,12.49
2022-11-08T03:24:12.816Z,12.59
2022-11-08T03:25:12.844Z,12.51
2022-11-08T03:26:12.878Z,12.55
2022-11-08T03:27:12.911Z,12.66
2022-11-08T03:28:12.943Z,12.55
2022-11-08T03:29:12.976Z,12.63
2022-11-08T03:30:13.008Z,12.67
2022-11-08T03:31:13.039Z,12.63
2022-11-08T03:32:13.075Z,12.61
2022-11-08T03:33:13.104Z,12.69
2022-11-08T03:34:13.137Z,12.62
2022-11-08T03:35:13.168Z,12.62
2022-11-08T03:36:13.202Z,12.66
2022-11-08T03:37:13.232Z,12.67
2022-11-08T03:38:13.267Z,12.61
2022-11-08T03:39:13.301Z,12.58
2022-11-08T03:40:13.420Z,12.70
2022-11-08T03:41:13.361Z,12.66
2022-11-08T03:42:13.402Z,12.62
2022-11-08T03:43:13.431Z,12.62
2022-11-08T03:44:13.462Z,12.67
2022-11-08T03:45:13.517Z,12.71
2022-11-08T03:46:13.563Z,12.63
2022-11-08T03:47:13.560Z,12.67
2022-11-08T03:48:13.590Z,12.62
2022-11-08T03:49:13.625Z,12.70
2022-11-08T03:50:13.656Z,12.59
2022-11-08T03:51:13.689Z,12.59
2022-11-08T03:52:13.722Z,12.63
2022-11-08T03:53:13.750Z,12.62
2022-11-08T03:54:13.785Z,12.59
2022-11-08T03:55:13.852Z,12.62
2022-11-08T03:56:13.860Z,12.63
2022-11-08T03:57:13.885Z,12.54
2022-11-08T03:58:13.934Z,12.62
2022-11-08T03:59:13.948Z,12.66
2022-11-08T04:00:13.979Z,12.66
2022-11-08T04:01:14.099Z,12.66
2022-11-08T04:02:14.158Z,12.67
2022-11-08T04:03:14.077Z,12.55
2022-11-08T04:04:14.111Z,12.67
2022-11-08T04:05:14.141Z,12.63
2022-11-08T04:06:14.174Z,12.55
2022-11-08T04:07:14.208Z,12.54
2022-11-08T04:08:14.343Z,12.54
2022-11-08T04:09:18.991Z,12.48
2022-11-08T04:10:14.306Z,12.56
2022-11-08T04:11:14.336Z,12.55
2022-11-08T04:12:14.372Z,12.48
2022-11-08T04:13:14.399Z,12.46
2022-11-08T04:14:14.432Z,12.44
2022-11-08T04:15:14.512Z,12.44
2022-11-08T04:16:17.876Z,12.52
2022-11-08T04:17:14.529Z,12.56
2022-11-08T04:18:14.629Z,12.56
2022-11-08T04:19:14.625Z,12.54
2022-11-08T04:20:14.629Z,12.56
2022-11-08T04:21:14.658Z,12.54
2022-11-08T04:22:14.692Z,12.52
2022-11-08T04:23:14.723Z,12.46
2022-11-08T04:24:14.759Z,12.55
2022-11-08T04:25:14.789Z,12.58
2022-11-08T04:26:14.822Z,12.44
2022-11-08T04:27:14.857Z,12.46
2022-11-08T04:28:15.090Z,12.40
2022-11-08T04:29:14.917Z,12.43
2022-11-08T04:30:14.950Z,12.38
2022-11-08T04:31:14.981Z,12.46
2022-11-08T04:32:15.017Z,12.40
2022-11-08T04:33:15.047Z,12.40
2022-11-08T04:34:15.084Z,12.41
2022-11-08T04:35:15.115Z,12.43
2022-11-08T04:36:15.147Z,12.44
2022-11-08T04:37:15.175Z,12.48
2022-11-08T04:38:15.635Z,12.41
2022-11-08T04:39:15.241Z,12.46
2022-11-08T04:40:15.276Z,12.44
2022-11-08T04:41:15.304Z,12.46
2022-11-08T04:42:15.339Z,12.36
2022-11-08T04:43:15.372Z,12.36
2022-11-08T04:44:15.405Z,12.43
2022-11-08T04:45:15.437Z,12.33
2022-11-08T04:46:15.472Z,12.40
2022-11-08T04:47:15.498Z,12.41
2022-11-08T04:48:16.067Z,12.40
2022-11-08T04:49:15.563Z,12.36
2022-11-08T04:50:15.608Z,12.31
2022-11-08T04:51:15.632Z,12.33
2022-11-08T04:52:15.661Z,12.38
2022-11-08T04:53:15.692Z,12.43
2022-11-08T04:54:15.729Z,12.43
2022-11-08T04:55:15.758Z,12.41
2022-11-08T04:56:15.799Z,12.43
2022-11-08T04:57:15.822Z,12.36
2022-11-08T04:58:16.278Z,12.37
2022-11-08T04:59:15.887Z,12.38
2022-11-08T05:00:15.919Z,12.26
2022-11-08T05:01:16.008Z,12.34
2022-11-08T05:02:16.181Z,12.36
2022-11-08T05:03:16.016Z,12.21
2022-11-08T05:04:16.047Z,12.18
2022-11-08T05:05:16.078Z,12.23
2022-11-08T05:06:16.112Z,12.21
2022-11-08T05:07:16.149Z,12.22
2022-11-08T05:08:16.517Z,12.21
2022-11-08T05:09:16.207Z,12.18
2022-11-08T05:10:16.241Z,12.19
2022-11-08T05:11:16.272Z,12.19
2022-11-08T05:12:16.305Z,12.31
2022-11-08T05:13:16.338Z,12.22
2022-11-08T05:14:16.371Z,12.23
2022-11-08T05:15:16.401Z,12.25
2022-11-08T05:16:16.434Z,12.26
2022-11-08T05:17:16.465Z,12.22
2022-11-08T05:18:17.016Z,12.23
2022-11-08T05:19:16.530Z,12.25
2022-11-08T05:20:16.564Z,12.22
2022-11-08T05:21:16.593Z,12.26
2022-11-08T05:22:16.628Z,12.22
2022-11-08T05:23:16.658Z,12.23
2022-11-08T05:24:16.696Z,12.23
2022-11-08T05:25:16.721Z,12.25
2022-11-08T05:26:16.756Z,12.19
2022-11-08T05:27:16.788Z,12.21
2022-11-08T05:28:17.274Z,12.21
2022-11-08T05:29:16.851Z,12.25
2022-11-08T05:30:16.901Z,12.19
2022-11-08T05:31:16.919Z,12.18
2022-11-08T05:32:16.950Z,12.19
2022-11-08T05:33:16.980Z,12.21
2022-11-08T05:34:17.014Z,12.12
2022-11-08T05:35:17.046Z,12.04
2022-11-08T05:36:17.080Z,12.11
2022-11-08T05:37:17.108Z,12.05
2022-11-08T05:38:17.661Z,12.05
2022-11-08T05:39:17.175Z,12.12
2022-11-08T05:40:17.209Z,12.12
2022-11-08T05:41:17.236Z,12.07
2022-11-08T05:42:17.271Z,11.97
2022-11-08T05:43:17.628Z,11.96
2022-11-08T05:44:17.336Z,11.87
2022-11-08T05:45:17.365Z,11.97
2022-11-08T05:46:17.398Z,11.90
2022-11-08T05:47:17.431Z,11.94
2022-11-08T05:48:17.800Z,11.96
2022-11-08T05:49:17.493Z,11.98
2022-11-08T05:50:19.536Z,11.94
2022-11-08T05:51:17.561Z,11.97
2022-11-08T05:52:17.592Z,11.94
2022-11-08T05:53:18.093Z,11.98
2022-11-08T05:54:17.767Z,11.98
2022-11-08T05:55:17.685Z,11.98
2022-11-08T05:56:17.719Z,12.00
2022-11-08T05:57:21.225Z,12.03
2022-11-08T05:58:17.783Z,12.00
2022-11-08T05:59:17.817Z,12.04
2022-11-08T06:00:17.851Z,11.85
2022-11-08T06:01:17.880Z,11.85
2022-11-08T06:02:18.075Z,11.88
2022-11-08T06:03:22.601Z,11.78
2022-11-08T06:04:17.976Z,11.90
2022-11-08T06:05:18.006Z,11.82
2022-11-08T06:06:18.037Z,11.97
2022-11-08T06:07:18.066Z,11.94
2022-11-08T06:08:18.099Z,11.93
2022-11-08T06:09:18.129Z,12.00
2022-11-08T06:10:18.166Z,11.96
2022-11-08T06:11:18.201Z,12.04
2022-11-08T06:12:18.228Z,12.00
2022-11-08T06:13:18.258Z,12.07
2022-11-08T06:14:18.292Z,12.08
2022-11-08T06:15:18.344Z,12.01
2022-11-08T06:16:18.357Z,12.03
2022-11-08T06:17:18.386Z,12.04
2022-11-08T06:18:18.421Z,12.01
2022-11-08T06:19:18.450Z,12.01
2022-11-08T06:20:18.486Z,12.03
2022-11-08T06:21:18.517Z,11.96
2022-11-08T06:22:18.550Z,11.96
2022-11-08T06:23:18.771Z,11.97
2022-11-08T06:24:18.639Z,12.05
2022-11-08T06:25:18.642Z,12.07
2022-11-08T06:26:18.679Z,12.01
2022-11-08T06:27:18.706Z,12.04
2022-11-08T06:28:18.742Z,12.08
2022-11-08T06:29:18.772Z,12.04
2022-11-08T06:30:18.804Z,12.08
2022-11-08T06:31:18.854Z,12.01
2022-11-08T06:32:18.870Z,12.03
2022-11-08T06:33:19.173Z,12.01
2022-11-08T06:34:18.953Z,12.05
2022-11-08T06:35:19.043Z,12.00
2022-11-08T06:36:18.998Z,11.96
2022-11-08T06:37:19.049Z,11.98
2022-11-08T06:38:19.061Z,11.94
2022-11-08T06:39:19.092Z,12.01
2022-11-08T06:40:19.134Z,11.90
2022-11-08T06:41:19.177Z,12.01
2022-11-08T06:42:19.191Z,12.03
2022-11-08T06:43:20.234Z,12.01
2022-11-08T06:44:19.256Z,12.00
2022-11-08T06:45:19.286Z,12.03
2022-11-08T06:46:19.319Z,12.00
2022-11-08T06:47:19.356Z,12.00
2022-11-08T06:48:19.384Z,12.03
2022-11-08T06:49:19.411Z,11.93
2022-11-08T06:50:19.445Z,11.97
2022-11-08T06:51:19.476Z,12.01
2022-11-08T06:52:19.513Z,11.97
2022-11-08T06:53:19.918Z,11.98
2022-11-08T06:54:23.252Z,12.01
2022-11-08T06:55:19.605Z,12.00
2022-11-08T06:56:19.636Z,11.98
2022-11-08T06:57:19.670Z,11.90
2022-11-08T06:58:19.703Z,11.88
2022-11-08T06:59:19.737Z,11.94
2022-11-08T07:00:19.765Z,11.84
2022-11-08T07:01:19.844Z,11.93
2022-11-08T07:02:19.939Z,11.87
2022-11-08T07:03:20.173Z,11.75
2022-11-08T07:04:19.893Z,11.75
2022-11-08T07:05:19.923Z,11.72
2022-11-08T07:06:19.956Z,11.69
2022-11-08T07:07:19.993Z,11.67
2022-11-08T07:08:23.740Z,11.70
2022-11-08T07:09:20.052Z,11.78
2022-11-08T07:10:20.085Z,11.75
2022-11-08T07:11:20.121Z,11.69
2022-11-08T07:12:20.149Z,11.67
2022-11-08T07:13:20.478Z,11.70
2022-11-08T07:14:20.213Z,11.74
2022-11-08T07:15:20.244Z,11.69
2022-11-08T07:16:20.276Z,11.66
2022-11-08T07:17:20.319Z,11.78
2022-11-08T07:18:20.409Z,11.70
2022-11-08T07:19:20.373Z,11.72
2022-11-08T07:20:20.404Z,11.67
2022-11-08T07:21:20.451Z,11.69
2022-11-08T07:22:20.465Z,11.75
2022-11-08T07:23:20.716Z,11.77
2022-11-08T07:24:20.532Z,11.74
2022-11-08T07:25:20.562Z,11.78
2022-11-08T07:26:20.595Z,11.81
2022-11-08T07:27:20.627Z,11.88
2022-11-08T07:28:20.659Z,11.93
2022-11-08T07:29:20.691Z,11.85
2022-11-08T07:30:20.724Z,11.93
2022-11-08T07:31:20.758Z,11.97
2022-11-08T07:32:20.785Z,11.87
2022-11-08T07:33:21.118Z,11.88
2022-11-08T07:34:20.852Z,11.97
2022-11-08T07:35:20.883Z,11.90
2022-11-08T07:36:20.917Z,11.96
2022-11-08T07:37:20.947Z,11.88
2022-11-08T07:38:20.978Z,11.84
2022-11-08T07:39:21.010Z,11.84
2022-11-08T07:40:21.042Z,11.97
2022-11-08T07:41:21.075Z,11.88
2022-11-08T07:42:21.104Z,11.87
2022-11-08T07:43:21.145Z,11.81
2022-11-08T07:44:21.172Z,11.87
2022-11-08T07:45:21.210Z,11.85
2022-11-08T07:46:21.237Z,11.78
2022-11-08T07:47:21.267Z,11.81
2022-11-08T07:48:21.299Z,11.90
2022-11-08T07:49:21.333Z,11.79
2022-11-08T07:50:21.371Z,11.81
2022-11-08T07:51:21.394Z,11.81
2022-11-08T07:52:21.430Z,11.87
2022-11-08T07:53:21.554Z,11.87
2022-11-08T07:54:21.488Z,11.87
2022-11-08T07:55:21.521Z,11.87
2022-11-08T07:56:21.552Z,11.93
2022-11-08T07:57:21.584Z,11.97
2022-11-08T07:58:21.620Z,11.97
2022-11-08T07:59:21.648Z,11.98
2022-11-08T08:00:21.682Z,12.00
2022-11-08T08:01:21.713Z,12.01
2022-11-08T08:02:21.856Z,12.01
2022-11-08T08:03:22.266Z,12.04
2022-11-08T08:04:21.809Z,12.01
2022-11-08T08:05:21.839Z,12.05
2022-11-08T08:06:21.871Z,12.04
2022-11-08T08:07:21.903Z,12.15
2022-11-08T08:08:21.935Z,12.12
2022-11-08T08:09:21.969Z,12.15
2022-11-08T08:10:22.001Z,12.15
2022-11-08T08:11:22.038Z,12.15
2022-11-08T08:12:22.062Z,12.21
2022-11-08T08:13:22.096Z,12.21
2022-11-08T08:14:22.126Z,12.22
2022-11-08T08:15:22.162Z,12.22
2022-11-08T08:16:22.193Z,12.29
2022-11-08T08:17:22.225Z,12.22
2022-11-08T08:18:22.261Z,12.25
2022-11-08T08:19:22.290Z,12.34
2022-11-08T08:20:22.319Z,12.34
2022-11-08T08:21:22.359Z,12.21
2022-11-08T08:22:22.382Z,12.33
2022-11-08T08:23:22.421Z,12.33
2022-11-08T08:24:22.448Z,12.33
2022-11-08T08:25:22.482Z,12.46
2022-11-08T08:26:22.512Z,12.43
2022-11-08T08:27:22.547Z,12.43
2022-11-08T08:28:22.577Z,12.44
2022-11-08T08:29:22.629Z,12.54
2022-11-08T08:30:22.641Z,12.59
2022-11-08T08:31:22.674Z,12.67
2022-11-08T08:32:22.707Z,12.71
2022-11-08T08:33:28.244Z,12.67
2022-11-08T08:34:22.778Z,12.80
2022-11-08T08:35:22.802Z,12.77
2022-11-08T08:36:22.834Z,12.80
2022-11-08T08:37:22.865Z,12.94
2022-11-08T08:38:22.898Z,12.85
2022-11-08T08:39:22.931Z,12.94
2022-11-08T08:40:22.966Z,12.95
2022-11-08T08:41:22.996Z,12.98
2022-11-08T08:42:23.029Z,13.06
2022-11-08T08:43:23.176Z,13.16
2022-11-08T08:44:23.094Z,13.16
2022-11-08T08:45:23.125Z,13.25
2022-11-08T08:46:23.157Z,13.31
2022-11-08T08:47:23.190Z,13.36
2022-11-08T08:48:23.237Z,13.32
2022-11-08T08:49:23.255Z,13.41
2022-11-08T08:50:23.349Z,13.38
2022-11-08T08:51:23.321Z,13.48
2022-11-08T08:52:23.352Z,13.50
2022-11-08T08:53:23.384Z,13.59
2022-11-08T08:54:26.867Z,13.54
2022-11-08T08:55:23.449Z,13.65
2022-11-08T08:56:23.483Z,13.73
2022-11-08T08:57:23.514Z,13.73
2022-11-08T08:58:23.549Z,13.84
2022-11-08T09:01:39.071Z,13.96
2022-11-08T09:02:23.677Z,14.02
2022-11-08T09:03:23.716Z,13.96
2022-11-08T09:04:23.744Z,14.11
2022-11-08T09:05:23.776Z,14.16
2022-11-08T09:06:23.808Z,14.21
2022-11-08T09:07:23.882Z,14.30
2022-11-08T09:08:23.873Z,14.35
2022-11-08T09:09:23.906Z,14.45
2022-11-08T09:10:24.001Z,14.44
2022-11-08T09:11:23.972Z,14.60
2022-11-08T09:12:24.008Z,14.67
2022-11-08T09:13:24.036Z,14.75
2022-11-08T09:14:24.069Z,14.79
2022-11-08T09:15:24.106Z,14.85
2022-11-08T09:16:24.136Z,14.82
2022-11-08T09:17:24.173Z,14.94
2022-11-08T09:18:24.265Z,14.94
2022-11-08T09:19:24.240Z,14.91
2022-11-08T09:20:24.285Z,15.00
2022-11-08T09:21:24.338Z,14.94
2022-11-08T09:22:24.387Z,15.01
2022-11-08T09:23:24.381Z,15.15
2022-11-08T09:24:24.405Z,15.18
2022-11-08T09:25:24.438Z,15.25
2022-11-08T09:26:24.470Z,15.37
2022-11-08T09:27:24.504Z,15.44
2022-11-08T09:28:29.804Z,15.44
2022-11-08T09:29:24.571Z,15.46
2022-11-08T09:30:24.610Z,15.41
2022-11-08T09:31:24.642Z,15.52
2022-11-08T09:32:39.329Z,15.52
2022-11-08T09:33:24.727Z,15.59
2022-11-08T09:34:24.738Z,15.67
2022-11-08T09:35:24.772Z,15.85
2022-11-08T09:36:24.805Z,15.96
2022-11-08T09:37:24.839Z,16.10
2022-11-08T09:38:24.872Z,16.44
2022-11-08T09:39:24.906Z,16.60
2022-11-08T09:40:24.939Z,16.91
2022-11-08T09:41:24.974Z,17.18
2022-11-08T09:42:25.007Z,17.66
2022-11-08T09:43:25.042Z,18.05
2022-11-08T09:44:25.075Z,18.59
2022-11-08T09:45:25.147Z,19.02
2022-11-08T09:46:25.142Z,19.60
2022-11-08T09:47:25.176Z,19.75
2022-11-08T09:48:25.208Z,19.78
2022-11-08T09:49:25.247Z,19.87
2022-11-08T09:50:25.277Z,19.95
2022-11-08T09:51:25.313Z,19.97
2022-11-08T09:52:25.351Z,19.92
2022-11-08T09:53:25.386Z,19.87
2022-11-08T09:54:25.415Z,19.95
2022-11-08T09:55:25.453Z,20.00
2022-11-08T09:56:25.483Z,20.15
2022-11-08T09:57:25.517Z,20.46
2022-11-08T09:58:25.548Z,20.58
2022-11-08T09:59:25.586Z,20.61
2022-11-08T10:00:25.617Z,20.76
2022-11-08T10:01:27.434Z,20.83
2022-11-08T10:02:25.810Z,20.85
2022-11-08T10:03:25.723Z,20.87
2022-11-08T10:04:25.757Z,20.97
2022-11-08T10:05:25.790Z,21.03
2022-11-08T10:06:25.841Z,21.30
2022-11-08T10:07:25.978Z,21.43
2022-11-08T10:08:25.896Z,21.58
2022-11-08T10:09:25.940Z,21.49
2022-11-08T10:10:25.965Z,21.61
2022-11-08T10:11:26.005Z,21.86
2022-11-08T10:12:26.036Z,21.99
2022-11-08T10:13:26.071Z,22.08
2022-11-08T10:14:26.107Z,21.86
2022-11-08T10:15:26.144Z,21.67
2022-11-08T10:16:26.178Z,21.37
2022-11-08T10:17:26.214Z,21.34
2022-11-08T10:18:26.257Z,21.05
2022-11-08T10:19:26.291Z,20.97
2022-11-08T10:20:26.330Z,20.96
2022-11-08T10:21:26.364Z,21.00
2022-11-08T10:22:26.395Z,20.87
2022-11-08T10:23:26.435Z,20.88
2022-11-08T10:24:26.477Z,20.83
2022-11-08T10:25:26.506Z,20.79
2022-11-08T10:26:27.354Z,20.66
2022-11-08T10:27:26.585Z,20.61
2022-11-08T10:28:26.616Z,20.53
2022-11-08T10:29:26.654Z,20.44
2022-11-08T10:30:26.695Z,20.26
2022-11-08T10:31:26.728Z,20.26
2022-11-08T10:32:26.765Z,20.26
2022-11-08T10:33:26.816Z,20.34
2022-11-08T10:34:26.838Z,20.44
2022-11-08T10:35:26.880Z,20.60
2022-11-08T10:36:26.912Z,20.76
2022-11-08T10:37:26.952Z,20.88
2022-11-08T10:38:26.991Z,21.15
2022-11-08T10:39:27.027Z,21.40
2022-11-08T10:40:27.083Z,21.55
2022-11-08T10:41:27.100Z,21.86
2022-11-08T10:42:27.143Z,21.86
2022-11-08T10:43:27.176Z,21.86
2022-11-08T10:44:27.214Z,21.86
2022-11-08T10:45:27.251Z,21.96
2022-11-08T10:46:27.292Z,21.89
2022-11-08T10:47:27.349Z,21.79
2022-11-08T10:48:27.363Z,21.81
2022-11-08T10:49:27.406Z,21.86
2022-11-08T10:50:27.437Z,21.94
2022-11-08T10:51:27.479Z,22.12
2022-11-08T10:52:27.514Z,22.29
2022-11-08T10:53:27.551Z,22.41
2022-11-08T10:54:27.589Z,22.67
2022-11-08T10:55:27.626Z,22.91
2022-11-08T10:56:27.664Z,23.23
2022-11-08T10:57:27.705Z,23.90
2022-11-08T10:58:27.830Z,24.21
2022-11-08T10:59:27.779Z,24.21
2022-11-08T11:00:27.814Z,24.45
2022-11-08T11:01:27.949Z,24.84
2022-11-08T11:02:27.935Z,24.71
2022-11-08T11:03:27.931Z,24.60
2022-11-08T11:04:27.969Z,24.55
2022-11-08T11:05:28.005Z,24.74
2022-11-08T11:06:28.078Z,24.86
2022-11-08T11:07:28.080Z,25.02
2022-11-08T11:08:28.121Z,25.04
2022-11-08T11:09:28.156Z,25.31
2022-11-08T11:10:28.195Z,25.90
2022-11-08T11:11:28.237Z,26.11
2022-11-08T11:12:28.271Z,26.23
2022-11-08T11:14:28.351Z,26.27
2022-11-08T11:15:28.388Z,26.20
2022-11-08T11:16:28.424Z,26.11
2022-11-08T11:17:28.465Z,25.79
2022-11-08T11:18:28.504Z,25.48
2022-11-08T11:19:28.540Z,25.16
2022-11-08T11:20:28.578Z,24.70
2022-11-08T11:21:28.621Z,24.44
2022-11-08T11:22:28.658Z,24.24
2022-11-08T11:23:28.700Z,24.16
2022-11-08T11:24:28.736Z,23.81
2022-11-08T11:25:28.777Z,23.69
2022-11-08T11:26:28.816Z,23.44
2022-11-08T11:27:28.856Z,23.39
2022-11-08T11:28:28.899Z,23.22
2022-11-08T11:29:28.936Z,23.16
2022-11-08T11:30:28.980Z,23.06
2022-11-08T11:31:29.020Z,23.09
2022-11-08T11:32:29.062Z,23.06
2022-11-08T11:33:29.123Z,22.99
2022-11-08T11:34:29.145Z,22.91
2022-11-08T11:35:29.185Z,22.94
2022-11-08T11:36:29.231Z,22.93
2022-11-08T11:37:29.270Z,22.82
2022-11-08T11:38:29.330Z,22.86
2022-11-08T11:39:29.355Z,22.86
2022-11-08T11:40:29.398Z,22.76
2022-11-08T11:41:29.471Z,22.66
2022-11-08T11:42:46.519Z,22.57
2022-11-08T11:43:29.529Z,22.41
2022-11-08T11:44:29.570Z,22.21
2022-11-08T11:45:29.615Z,22.15
2022-11-08T11:46:29.662Z,22.12
2022-11-08T11:47:29.697Z,22.12
2022-11-08T11:48:29.740Z,22.15
2022-11-08T11:49:29.782Z,22.17
2022-11-08T11:50:29.829Z,22.24
2022-11-08T11:51:29.992Z,22.33
2022-11-08T11:52:29.915Z,22.21
2022-11-08T11:53:29.953Z,22.17
2022-11-08T11:54:29.997Z,22.05
2022-11-08T11:55:30.038Z,22.09
2022-11-08T11:56:30.085Z,22.23
2022-11-08T11:57:30.123Z,22.26
2022-11-08T11:58:30.167Z,22.35
2022-11-08T11:59:30.205Z,22.52
2022-11-08T12:00:30.252Z,22.64
2022-11-08T12:01:30.351Z,23.03
2022-11-08T12:02:30.468Z,23.32
2022-11-08T12:03:30.372Z,23.77
2022-11-08T12:04:30.425Z,24.16
2022-11-08T12:05:30.456Z,24.74
2022-11-08T12:06:30.551Z,25.35
2022-11-08T12:07:30.575Z,25.60
2022-11-08T12:08:30.582Z,25.85
2022-11-08T12:09:30.619Z,26.11
2022-11-08T12:10:30.661Z,26.23
2022-11-08T12:11:30.699Z,26.17
2022-11-08T12:12:30.742Z,26.09
2022-11-08T12:13:30.780Z,25.97
2022-11-08T12:14:30.821Z,25.90
2022-11-08T12:15:30.861Z,25.81
2022-11-08T12:16:30.904Z,25.66
2022-11-08T12:17:30.943Z,25.56
2022-11-08T12:18:42.850Z,25.26
2022-11-08T12:19:31.022Z,25.04
2022-11-08T12:20:31.064Z,24.93
2022-11-08T12:21:31.100Z,25.01
2022-11-08T12:22:31.144Z,24.75
2022-11-08T12:23:31.180Z,24.77
2022-11-08T12:24:31.956Z,24.98
2022-11-08T12:25:38.493Z,25.20
2022-11-08T12:27:35.321Z,25.91
2022-11-08T12:28:38.564Z,26.20
2022-11-08T12:30:39.428Z,26.00
2022-11-08T12:31:39.458Z,26.03
2022-11-08T12:33:32.655Z,26.01
2022-11-08T12:34:32.665Z,25.90
2022-11-08T12:36:25.649Z,25.72
2022-11-08T12:37:25.680Z,25.83
2022-11-08T12:39:29.767Z,25.79
2022-11-08T12:40:29.772Z,25.90
2022-11-08T12:42:22.970Z,26.16
2022-11-08T12:43:22.979Z,26.38
2022-11-08T12:45:16.181Z,26.84
2022-11-08T12:46:16.208Z,27.20
2022-11-08T12:48:20.603Z,27.46
2022-11-08T12:49:20.297Z,27.33
2022-11-08T12:51:13.466Z,27.06
2022-11-08T12:52:13.506Z,26.93
2022-11-08T12:54:06.677Z,26.34
2022-11-08T12:55:06.711Z,26.04
2022-11-08T12:56:59.698Z,25.53
2022-11-08T12:57:59.751Z,25.11
2022-11-08T13:00:03.821Z,24.31
2022-11-08T13:01:03.908Z,24.00
2022-11-08T13:02:57.050Z,23.59
2022-11-08T13:04:00.586Z,23.45
2022-11-08T13:05:50.233Z,23.75
2022-11-08T13:06:50.361Z,23.93
2022-11-08T13:08:54.370Z,24.06
2022-11-08T13:09:54.381Z,24.21
2022-11-08T13:11:47.554Z,23.84
2022-11-08T13:12:47.582Z,23.59
2022-11-08T13:14:41.816Z,23.23